Terminal Aerodrome Forecast
Issued by NWS

Home | Current Version | Previous Version | Text Only | Print | Product List | Glossary Off
Versions: 1 2 3 4 5 6 7 8 9 10 11 12 13 14 15 16 17 18 19

599
FTUS41 KCLE 100537
TAFFDY
TAF
KFDY 100537Z 1006/1106 27015KT P6SM OVC018
     FM101200 29015G22KT 6SM -SHSN OVC028
      TEMPO 1014/1018 3SM -SHSN OVC018
     FM102200 28015G22KT P6SM BKN035=

USA.gov is the U.S. government's official web portal to all federal, state and local government web resources and services.